Time;durP1;ratioP1;P1;durP2;ratioP2;P2;SDS_P1;SDS_P2;PMS_P1;PMS_P2;Temp;Humidity;BMP_temperature;BMP_pressure;BME280_temperature;BME280_humidity;BME280_pressure;Samples;Min_cycle;Max_cycle;Signal;HPM_P1;HPM_P2
2022/10/31 00:00:59;;;;;;;2.78;1.77;;;;;;;15.31;57.46;98512.06;5033266;28;20210;-58
2022/10/31 00:03:26;;;;;;;3.72;2.03;;;;;;;15.20;58.19;98514.78;5033323;28;20260;-58
2022/10/31 00:05:51;;;;;;;3.80;2.17;;;;;;;15.20;57.97;98516.53;5033354;28;20252;-58
2022/10/31 00:08:17;;;;;;;4.72;2.00;;;;;;;15.14;58.63;98514.44;5032993;28;20659;-58
2022/10/31 00:10:44;;;;;;;2.22;1.83;;;;;;;15.09;58.62;98519.22;5033036;28;20178;-58
2022/10/31 00:13:11;;;;;;;4.85;2.10;;;;;;;15.05;59.24;98520.47;5033167;28;20201;-58
2022/10/31 00:15:37;;;;;;;3.10;1.95;;;;;;;15.01;59.18;98519.06;5032756;28;20586;-58
2022/10/31 00:18:04;;;;;;;2.05;1.63;;;;;;;14.94;59.29;98517.94;5033128;28;20185;-58
2022/10/31 00:20:30;;;;;;;5.20;1.83;;;;;;;14.88;59.46;98514.06;5032851;28;20232;-58
2022/10/31 00:22:59;;;;;;;4.93;1.73;;;;;;;14.83;59.74;98513.63;5032988;28;20206;-58
2022/10/31 00:25:27;;;;;;;6.57;2.03;;;;;;;14.67;60.21;98515.03;5033131;28;20189;-58
2022/10/31 00:27:52;;;;;;;2.13;1.52;;;;;;;14.67;60.71;98509.81;5032713;28;20690;-58
2022/10/31 00:30:17;;;;;;;2.97;2.17;;;;;;;14.65;61.14;98506.53;5032695;28;20250;-58
2022/10/31 00:32:43;;;;;;;1.95;1.75;;;;;;;14.68;60.99;98501.88;5032651;28;20562;-58
2022/10/31 00:35:08;;;;;;;2.35;1.88;;;;;;;14.63;61.03;98503.22;5032662;28;20174;-58
2022/10/31 00:37:34;;;;;;;2.00;1.80;;;;;;;14.65;61.20;98502.13;5032598;28;20183;-58
2022/10/31 00:39:59;;;;;;;5.55;2.00;;;;;;;14.74;60.86;98505.75;5032644;28;20175;-58
2022/10/31 00:42:25;;;;;;;6.43;2.00;;;;;;;14.84;60.51;98491.00;5032392;28;20198;-58
2022/10/31 00:44:50;;;;;;;3.20;1.80;;;;;;;14.90;60.74;98490.47;5032246;28;20210;-58
2022/10/31 00:47:15;;;;;;;2.15;1.70;;;;;;;14.82;61.11;98482.50;5032364;28;20261;-58
2022/10/31 00:49:41;;;;;;;2.47;1.88;;;;;;;14.92;61.79;98504.22;5032366;28;20261;-58
2022/10/31 00:52:07;;;;;;;5.22;2.08;;;;;;;14.89;60.85;98505.31;5031969;28;20206;-58
2022/10/31 00:54:32;;;;;;;3.53;2.00;;;;;;;14.88;60.80;98490.59;5032790;28;20193;-58
2022/10/31 00:56:57;;;;;;;4.88;2.00;;;;;;;14.91;61.86;98495.56;5032503;28;20643;-58
2022/10/31 00:59:23;;;;;;;2.55;2.30;;;;;;;14.99;61.70;98494.94;5032521;28;20209;-58
2022/10/31 01:01:48;;;;;;;2.10;2.00;;;;;;;15.02;62.00;98497.25;5032368;28;20174;-59
2022/10/31 01:04:14;;;;;;;3.55;2.28;;;;;;;15.10;61.87;98493.03;5032078;28;20194;-58
2022/10/31 01:06:39;;;;;;;3.58;1.77;;;;;;;15.01;61.44;98500.81;5032099;28;20177;-58
2022/10/31 01:09:05;;;;;;;1.92;1.75;;;;;;;15.08;61.19;98494.13;5032129;28;20182;-58
2022/10/31 01:11:30;;;;;;;3.55;2.10;;;;;;;15.05;60.71;98500.44;5032114;28;20193;-58
2022/10/31 01:13:56;;;;;;;5.82;2.08;;;;;;;15.02;61.23;98499.84;5032262;28;20261;-58
2022/10/31 01:16:24;;;;;;;5.07;2.25;;;;;;;15.03;61.39;98502.34;5032050;28;20589;-58
2022/10/31 01:18:50;;;;;;;4.45;1.75;;;;;;;15.03;60.67;98504.13;5031989;28;20185;-58
2022/10/31 01:21:21;;;;;;;3.03;1.67;;;;;;;15.06;60.46;98501.25;5031965;28;20178;-58
2022/10/31 01:23:47;;;;;;;5.22;2.00;;;;;;;14.93;63.13;98495.44;5032067;28;20194;-58
2022/10/31 01:26:19;;;;;;;2.13;1.98;;;;;;;14.97;61.48;98489.00;5031937;28;20228;-58
2022/10/31 01:28:51;;;;;;;6.15;1.80;;;;;;;14.96;61.59;98493.41;5031850;28;20170;-58
2022/10/31 01:31:18;;;;;;;3.03;2.20;;;;;;;15.01;61.80;98487.78;5032161;28;20189;-58
2022/10/31 01:33:44;;;;;;;1.67;1.55;;;;;;;15.07;61.51;98482.06;5031872;28;20174;-58
2022/10/31 01:36:28;;;;;;;2.88;2.15;;;;;;;15.05;61.49;98476.16;5031783;28;20178;-58
2022/10/31 01:38:58;;;;;;;5.32;2.15;;;;;;;14.97;61.42;98470.75;5031867;28;20238;-58
2022/10/31 01:41:29;;;;;;;2.75;1.70;;;;;;;15.05;61.14;98473.56;5031829;28;20198;-58
2022/10/31 01:43:57;;;;;;;4.38;1.70;;;;;;;15.03;61.30;98471.06;5031508;28;20272;-58
2022/10/31 01:46:29;;;;;;;4.22;1.80;;;;;;;15.09;62.09;98467.09;5031775;28;20265;-58
2022/10/31 01:48:57;;;;;;;3.35;2.15;;;;;;;15.20;61.74;98461.78;5031661;28;20261;-58
2022/10/31 01:51:28;;;;;;;4.10;1.90;;;;;;;15.35;61.21;98465.72;5031664;28;20641;-58
2022/10/31 01:53:57;;;;;;;2.85;1.70;;;;;;;15.53;61.30;98480.59;5031710;28;20229;-58
2022/10/31 01:56:23;;;;;;;3.20;1.80;;;;;;;15.70;60.60;98479.13;5031635;28;20178;-58
2022/10/31 01:58:49;;;;;;;3.47;1.83;;;;;;;15.91;59.89;98480.66;5031675;28;20615;-58
2022/10/31 02:01:16;;;;;;;4.70;2.05;;;;;;;15.99;59.53;98477.38;5013830;28;20634;-58
2022/10/31 02:03:42;;;;;;;2.20;2.08;;;;;;;16.02;59.38;98475.31;5033505;28;20198;-59
2022/10/31 02:06:17;;;;;;;2.97;2.03;;;;;;;16.12;59.33;98475.28;5035446;28;20212;-58
2022/10/31 02:08:43;;;;;;;4.78;1.92;;;;;;;16.17;58.06;98480.94;5035512;28;20162;-58
2022/10/31 02:11:09;;;;;;;2.03;1.58;;;;;;;16.06;58.31;98463.63;5035485;28;20174;-58
2022/10/31 02:13:34;;;;;;;5.45;1.92;;;;;;;16.03;57.97;98458.66;5035217;28;20170;-58
2022/10/31 02:16:00;;;;;;;2.85;1.77;;;;;;;16.11;58.10;98477.09;5035242;28;20174;-58
2022/10/31 02:18:29;;;;;;;4.25;1.70;;;;;;;16.12;58.39;98480.50;5035190;28;20628;-58
2022/10/31 02:21:16;;;;;;;2.28;1.80;;;;;;;16.13;58.38;98483.00;5035148;28;20256;-58
2022/10/31 02:24:18;;;;;;;5.03;2.13;;;;;;;16.06;57.97;98489.75;5035028;28;20205;-58
2022/10/31 02:26:56;;;;;;;4.50;1.70;;;;;;;16.07;57.79;98496.59;5035006;28;20177;-58
2022/10/31 02:29:43;;;;;;;4.95;1.73;;;;;;;16.02;57.58;98492.72;5035142;28;20641;-58
2022/10/31 02:32:27;;;;;;;3.55;1.50;;;;;;;15.90;58.12;98483.38;5035127;28;20242;-58
2022/10/31 02:34:59;;;;;;;4.47;1.60;;;;;;;15.81;58.08;98469.38;5035325;28;20685;-58
2022/10/31 02:37:36;;;;;;;4.78;1.55;;;;;;;15.85;58.22;98475.97;5035017;28;20198;-58
2022/10/31 02:40:33;;;;;;;1.80;1.58;;;;;;;15.75;58.48;98474.31;5035137;28;20228;-58
2022/10/31 02:43:06;;;;;;;3.53;1.88;;;;;;;15.75;59.56;98471.72;5034886;28;20201;-58
2022/10/31 02:45:43;;;;;;;5.63;2.10;;;;;;;15.82;59.63;98472.81;5034567;28;20210;-58
2022/10/31 02:48:13;;;;;;;4.65;1.75;;;;;;;15.88;59.35;98477.50;5034642;28;20166;-58
2022/10/31 02:50:45;;;;;;;3.70;1.75;;;;;;;15.93;59.17;98465.66;5034827;28;20224;-58
2022/10/31 02:53:14;;;;;;;3.10;2.25;;;;;;;15.98;59.20;98471.31;5034538;28;20628;-58
2022/10/31 02:55:54;;;;;;;9.20;1.90;;;;;;;16.31;58.42;98472.66;5034475;28;20257;-58
2022/10/31 02:58:24;;;;;;;5.80;1.80;;;;;;;16.60;57.58;98470.88;5034435;28;20162;-58
2022/10/31 03:00:52;;;;;;;3.13;1.67;;;;;;;16.78;56.89;98462.16;5034570;28;20185;-58
2022/10/31 03:03:36;;;;;;;2.25;1.45;;;;;;;16.92;56.70;98463.50;5034206;28;20685;-58
2022/10/31 03:06:37;;;;;;;3.80;1.67;;;;;;;16.96;56.46;98472.72;5034569;28;20186;-58
2022/10/31 03:09:05;;;;;;;4.65;1.40;;;;;;;17.10;56.48;98480.09;5033540;28;20232;-58
2022/10/31 03:11:44;;;;;;;4.68;1.85;;;;;;;17.24;56.24;98484.81;5034193;28;20257;-58
2022/10/31 03:14:21;;;;;;;1.90;1.60;;;;;;;17.39;55.46;98491.28;5034007;28;20642;-58
2022/10/31 03:16:52;;;;;;;4.18;1.63;;;;;;;17.48;55.70;98498.25;5034138;28;20252;-58
2022/10/31 03:19:29;;;;;;;3.45;1.70;;;;;;;17.45;55.88;98499.38;5034023;28;20647;-58
2022/10/31 03:22:20;;;;;;;4.70;1.90;;;;;;;17.22;54.58;98508.53;5034301;28;20178;-58
2022/10/31 03:24:48;;;;;;;4.43;1.63;;;;;;;16.95;55.44;98516.31;5034203;28;20178;-58
2022/10/31 03:27:18;;;;;;;2.70;1.50;;;;;;;16.72;55.56;98501.94;5033828;28;20182;-58
2022/10/31 03:29:44;;;;;;;5.32;1.70;;;;;;;16.56;56.32;98529.59;5034083;28;20216;-58
2022/10/31 03:32:17;;;;;;;1.92;1.58;;;;;;;16.36;57.06;98520.09;5033943;28;20182;-58
2022/10/31 03:34:45;;;;;;;2.78;1.70;;;;;;;16.11;58.05;98520.63;5033992;28;20559;-58
2022/10/31 03:37:15;;;;;;;3.90;1.65;;;;;;;15.98;58.68;98533.13;5033779;28;20265;-58
2022/10/31 03:39:42;;;;;;;2.88;1.70;;;;;;;15.85;59.05;98535.19;5033655;28;20281;-58
2022/10/31 03:42:16;;;;;;;4.35;1.70;;;;;;;15.72;59.46;98531.97;5033528;28;20174;-58
2022/10/31 03:44:46;;;;;;;2.85;1.77;;;;;;;15.64;60.30;98545.69;5033436;28;20744;-58
2022/10/31 03:47:12;;;;;;;4.60;1.67;;;;;;;15.68;59.85;98548.88;5033785;28;20170;-58
2022/10/31 03:49:38;;;;;;;4.22;1.90;;;;;;;15.54;60.38;98539.63;5033947;28;20262;-58
2022/10/31 03:52:22;;;;;;;2.47;1.98;;;;;;;15.53;60.62;98539.75;5033548;28;20181;-58
2022/10/31 03:55:05;;;;;;;3.40;1.70;;;;;;;15.55;60.83;98546.50;5033350;28;20179;-58
2022/10/31 03:57:43;;;;;;;2.38;1.95;;;;;;;15.59;60.86;98536.63;5033616;28;20621;-58
2022/10/31 04:00:12;;;;;;;3.10;1.38;;;;;;;15.67;60.77;98542.81;5033293;28;20730;-58
2022/10/31 04:02:42;;;;;;;4.57;1.60;;;;;;;15.70;60.95;98541.72;5033129;28;20198;-58
2022/10/31 04:05:10;;;;;;;1.92;1.65;;;;;;;15.84;60.22;98538.72;5033404;28;20173;-58
2022/10/31 04:07:41;;;;;;;3.75;1.75;;;;;;;15.83;60.17;98532.69;5033383;28;20182;-58
2022/10/31 04:10:11;;;;;;;2.50;1.60;;;;;;;15.88;59.86;98540.13;5033130;28;20177;-58
2022/10/31 04:12:38;;;;;;;4.60;1.90;;;;;;;15.88;59.93;98538.34;5033001;28;20241;-58
2022/10/31 04:15:07;;;;;;;5.28;1.70;;;;;;;15.88;59.98;98545.34;5032973;28;20232;-58
2022/10/31 04:17:36;;;;;;;5.03;1.63;;;;;;;15.74;59.84;98551.75;5033246;28;20598;-58
2022/10/31 04:20:02;;;;;;;2.65;1.65;;;;;;;15.68;60.41;98561.91;5032917;28;20229;-58
2022/10/31 04:22:28;;;;;;;3.03;1.75;;;;;;;15.65;60.67;98563.00;5032919;28;20689;-58
2022/10/31 04:24:53;;;;;;;3.65;1.70;;;;;;;15.56;60.88;98570.81;5032901;28;20189;-58
2022/10/31 04:27:19;;;;;;;3.72;1.80;;;;;;;15.60;60.92;98575.63;5032170;28;20638;-58
2022/10/31 04:29:44;;;;;;;4.10;2.03;;;;;;;15.65;60.73;98583.03;5032671;28;20205;-57
2022/10/31 04:32:09;;;;;;;2.85;2.10;;;;;;;15.60;60.91;98585.22;5033111;28;20270;-57
2022/10/31 04:34:35;;;;;;;2.90;1.63;;;;;;;15.58;61.34;98584.53;5032607;28;20183;-59
2022/10/31 04:37:00;;;;;;;3.88;1.75;;;;;;;15.50;61.25;98568.69;5032711;28;20175;-59
2022/10/31 04:39:26;;;;;;;2.22;1.83;;;;;;;15.53;61.84;98582.31;5032798;28;20596;-59
2022/10/31 04:41:51;;;;;;;3.08;1.80;;;;;;;15.49;61.85;98575.72;5032499;28;20269;-59
2022/10/31 04:44:16;;;;;;;4.57;1.58;;;;;;;15.59;61.84;98573.13;5032176;28;20218;-59
2022/10/31 04:46:42;;;;;;;2.92;1.45;;;;;;;15.66;61.86;98579.47;5032470;28;20233;-59
2022/10/31 04:49:07;;;;;;;3.60;1.50;;;;;;;15.77;61.32;98584.59;5032583;28;20189;-59
2022/10/31 04:51:33;;;;;;;2.15;1.50;;;;;;;15.74;60.97;98582.25;5032332;28;20635;-59
2022/10/31 04:53:58;;;;;;;3.58;1.77;;;;;;;15.61;61.52;98582.47;5032311;28;20167;-59
2022/10/31 04:56:23;;;;;;;4.00;1.52;;;;;;;15.63;61.56;98580.56;5032216;28;20182;-59
2022/10/31 04:58:49;;;;;;;2.85;1.73;;;;;;;15.59;61.63;98594.84;5032317;28;20188;-59
2022/10/31 05:01:14;;;;;;;6.30;2.00;;;;;;;15.59;61.64;98596.59;5032340;28;20175;-59
2022/10/31 05:03:40;;;;;;;5.47;2.58;;;;;;;15.50;62.44;98590.41;5032048;28;20671;-59
2022/10/31 05:06:06;;;;;;;3.85;1.92;;;;;;;15.55;61.83;98592.59;5032393;28;20214;-59
2022/10/31 05:08:31;;;;;;;3.80;1.85;;;;;;;15.56;62.28;98596.88;5032375;28;20182;-59
2022/10/31 05:11:01;;;;;;;4.88;1.88;;;;;;;15.60;62.07;98601.69;5032027;28;20640;-59
2022/10/31 05:13:27;;;;;;;4.45;2.17;;;;;;;15.54;62.23;98585.75;5032014;28;20175;-59
2022/10/31 05:15:52;;;;;;;3.92;3.13;;;;;;;15.65;62.29;98609.13;5014922;28;20182;-59
2022/10/31 05:18:18;;;;;;;8.07;2.22;;;;;;;15.63;62.67;98618.88;5032268;28;20178;-59
2022/10/31 05:20:43;;;;;;;4.28;1.60;;;;;;;15.65;62.65;98630.84;5032335;28;20173;-59
2022/10/31 05:23:08;;;;;;;5.07;1.70;;;;;;;15.60;62.69;98638.22;5031878;28;20627;-59
2022/10/31 05:25:34;;;;;;;2.20;1.60;;;;;;;15.63;62.34;98637.94;5014165;28;20174;-58
2022/10/31 05:27:59;;;;;;;5.25;2.08;;;;;;;15.64;62.01;98638.78;5031844;28;20201;-58
2022/10/31 05:30:29;;;;;;;4.28;1.42;;;;;;;15.55;62.51;98636.94;5032306;28;20189;-58
2022/10/31 05:32:55;;;;;;;4.65;1.80;;;;;;;15.59;62.56;98639.19;5032108;28;20178;-58
2022/10/31 05:35:23;;;;;;;5.00;1.67;;;;;;;15.59;62.66;98640.94;5032051;28;20184;-58
2022/10/31 05:37:49;;;;;;;2.45;1.65;;;;;;;15.66;62.53;98632.47;5034107;28;20174;-58
2022/10/31 05:40:16;;;;;;;6.35;1.90;;;;;;;15.59;62.99;98630.50;5035899;28;20232;-58
2022/10/31 05:42:42;;;;;;;4.65;1.80;;;;;;;15.67;62.99;98633.28;5035635;28;20198;-58
2022/10/31 05:45:10;;;;;;;4.25;2.28;;;;;;;15.62;62.64;98627.66;5035761;28;20198;-58
2022/10/31 05:47:35;;;;;;;6.30;2.33;;;;;;;15.70;62.69;98648.69;5035999;28;20248;-59
2022/10/31 05:50:00;;;;;;;2.80;2.47;;;;;;;15.73;62.72;98648.41;5035736;28;20229;-59
2022/10/31 05:52:26;;;;;;;3.42;2.05;;;;;;;15.79;62.55;98645.28;5035684;28;20177;-59
2022/10/31 05:54:51;;;;;;;6.28;1.75;;;;;;;15.85;63.07;98647.41;5035620;28;20639;-59
2022/10/31 05:57:17;;;;;;;3.45;2.05;;;;;;;15.93;62.29;98639.72;5035584;28;20174;-59
2022/10/31 05:59:42;;;;;;;6.28;2.63;;;;;;;15.98;62.58;98637.53;5035636;28;20170;-59
2022/10/31 06:02:07;;;;;;;3.55;2.40;;;;;;;16.08;62.21;98654.03;5035454;28;20261;-58
2022/10/31 06:04:33;;;;;;;6.00;3.05;;;;;;;16.12;62.32;98655.44;5035378;28;20198;-57
2022/10/31 06:06:58;;;;;;;4.85;2.47;;;;;;;16.18;61.82;98662.72;5035372;28;20650;-57
2022/10/31 06:09:23;;;;;;;6.40;3.03;;;;;;;16.17;61.66;98661.06;5035406;28;20257;-57
2022/10/31 06:11:49;;;;;;;5.30;2.90;;;;;;;16.22;62.01;98672.75;5035256;28;20551;-58
2022/10/31 06:14:14;;;;;;;5.53;2.03;;;;;;;16.24;61.53;98677.84;5035216;28;20169;-58
2022/10/31 06:16:40;;;;;;;5.78;1.85;;;;;;;16.27;61.48;98681.03;5017422;28;20254;-58
2022/10/31 06:19:05;;;;;;;5.05;2.42;;;;;;;16.21;61.42;98684.16;5035188;28;20170;-58
2022/10/31 06:21:30;;;;;;;5.40;2.38;;;;;;;16.25;61.68;98692.56;5035618;28;20167;-58
2022/10/31 06:23:56;;;;;;;11.05;2.45;;;;;;;16.29;61.67;98686.13;5035103;28;20198;-58
2022/10/31 06:26:21;;;;;;;6.10;2.15;;;;;;;16.26;62.00;98689.00;5034981;28;20674;-58
2022/10/31 06:28:46;;;;;;;3.95;2.25;;;;;;;16.37;61.97;98689.72;5034953;28;20650;-58
2022/10/31 06:31:12;;;;;;;2.60;1.95;;;;;;;16.40;62.03;98686.03;5035174;28;20196;-58
2022/10/31 06:33:37;;;;;;;2.72;2.08;;;;;;;16.46;62.48;98693.34;5034814;28;20178;-58
2022/10/31 06:36:03;;;;;;;3.90;2.25;;;;;;;16.56;61.55;98691.56;5034837;28;20174;-58
2022/10/31 06:38:29;;;;;;;5.57;2.97;;;;;;;16.61;62.02;98698.03;5034719;28;20228;-58
2022/10/31 06:40:54;;;;;;;4.70;2.00;;;;;;;16.69;61.22;98702.59;5034715;28;20697;-58
2022/10/31 06:43:20;;;;;;;5.60;2.40;;;;;;;16.74;60.98;98701.22;5034451;28;20251;-58
2022/10/31 06:45:46;;;;;;;5.20;2.33;;;;;;;16.76;61.09;98703.69;5034880;28;20324;-58
2022/10/31 06:48:12;;;;;;;4.55;2.00;;;;;;;16.89;60.31;98701.63;5034338;28;20257;-58
2022/10/31 06:50:37;;;;;;;3.85;2.25;;;;;;;16.94;60.38;98708.13;5034488;28;20174;-58
2022/10/31 06:53:02;;;;;;;3.88;2.20;;;;;;;16.97;60.19;98699.97;5034539;28;20716;-59
2022/10/31 06:55:28;;;;;;;4.93;2.85;;;;;;;17.00;60.06;98706.72;5034473;28;20170;-59
2022/10/31 06:57:59;;;;;;;2.85;1.83;;;;;;;17.02;59.79;98704.81;5034687;28;20169;-59
2022/10/31 07:00:26;;;;;;;2.45;1.77;;;;;;;17.07;59.19;98697.34;5034378;28;20178;-59
2022/10/31 07:03:02;;;;;;;4.60;2.25;;;;;;;17.16;59.23;98712.22;5034267;28;20194;-59
2022/10/31 07:05:29;;;;;;;6.10;2.45;;;;;;;17.21;58.33;98703.00;5034462;28;20261;-59
2022/10/31 07:07:56;;;;;;;6.10;2.50;;;;;;;17.21;59.05;98702.19;5034765;28;20279;-58
2022/10/31 07:10:22;;;;;;;5.03;2.70;;;;;;;17.16;58.92;98686.91;5034218;28;20651;-58
2022/10/31 07:12:48;;;;;;;5.13;2.38;;;;;;;17.25;58.57;98708.81;5034120;28;20251;-58
2022/10/31 07:15:13;;;;;;;8.85;2.30;;;;;;;17.24;58.77;98691.44;5034378;28;20660;-59
2022/10/31 07:17:39;;;;;;;4.82;2.55;;;;;;;17.33;58.57;98693.22;5034078;28;20189;-59
2022/10/31 07:20:05;;;;;;;4.70;2.22;;;;;;;17.35;58.57;98696.50;5034025;28;20170;-59
2022/10/31 07:22:37;;;;;;;3.42;2.72;;;;;;;17.37;58.40;98689.38;5033799;28;20539;-59
2022/10/31 07:25:03;;;;;;;4.82;2.58;;;;;;;17.45;58.35;98694.75;5033913;28;20177;-59
2022/10/31 07:27:29;;;;;;;4.53;2.33;;;;;;;17.67;57.76;98692.63;5033910;28;20177;-59
2022/10/31 07:29:54;;;;;;;5.53;2.20;;;;;;;17.74;57.58;98692.88;5033790;28;20618;-59
2022/10/31 07:32:19;;;;;;;5.25;2.08;;;;;;;17.88;57.23;98695.88;5033777;28;20228;-59
2022/10/31 07:34:45;;;;;;;2.85;2.20;;;;;;;18.10;56.47;98702.53;5033766;28;20272;-59
2022/10/31 07:37:10;;;;;;;6.47;1.77;;;;;;;18.21;56.15;98699.72;5033629;28;20697;-59
2022/10/31 07:39:36;;;;;;;2.17;1.98;;;;;;;18.24;56.05;98704.69;5033673;28;20170;-59
2022/10/31 07:42:01;;;;;;;4.05;1.95;;;;;;;18.25;56.37;98709.75;5033627;28;20616;-59
2022/10/31 07:44:26;;;;;;;3.05;2.17;;;;;;;18.32;56.35;98699.56;5015522;28;20218;-59
2022/10/31 07:46:52;;;;;;;7.57;2.50;;;;;;;18.46;56.01;98714.78;5033568;28;20178;-59
2022/10/31 07:49:17;;;;;;;5.50;1.63;;;;;;;18.52;55.87;98712.41;5033444;28;20177;-59
2022/10/31 07:51:42;;;;;;;6.10;2.45;;;;;;;18.58;55.79;98709.19;5033469;28;20166;-59
2022/10/31 07:54:08;;;;;;;2.95;2.10;;;;;;;18.81;55.53;98714.81;5033429;28;20696;-59
2022/10/31 07:56:33;;;;;;;2.50;2.10;;;;;;;18.96;55.14;98711.56;5033397;28;20202;-59
2022/10/31 07:58:59;;;;;;;3.88;2.33;;;;;;;19.12;54.62;98716.13;5033461;28;20281;-59
2022/10/31 08:01:24;;;;;;;4.78;2.28;;;;;;;19.25;55.21;98711.34;5032439;28;20178;-59
2022/10/31 08:03:49;;;;;;;5.07;2.58;;;;;;;19.38;54.56;98711.75;5033355;28;20194;-59
2022/10/31 08:06:15;;;;;;;2.85;2.40;;;;;;;19.47;54.32;98716.09;5015515;28;20547;-57
2022/10/31 08:08:40;;;;;;;4.95;2.13;;;;;;;19.63;53.50;98710.94;5033089;28;20571;-59
2022/10/31 08:11:06;;;;;;;4.60;2.25;;;;;;;19.73;53.23;98701.19;5033096;28;20261;-61
2022/10/31 08:13:31;;;;;;;7.10;2.42;;;;;;;19.95;52.77;98722.50;5033171;28;20162;-59
2022/10/31 08:16:03;;;;;;;6.28;3.25;;;;;;;20.03;53.39;98719.06;5033912;28;20181;-59
2022/10/31 08:18:29;;;;;;;7.10;2.97;;;;;;;20.13;52.41;98719.81;5032922;28;20168;-59
2022/10/31 08:20:54;;;;;;;9.75;2.95;;;;;;;20.23;52.60;98715.28;5015228;28;20177;-59
2022/10/31 08:23:19;;;;;;;4.10;2.50;;;;;;;20.30;52.46;98721.53;5032964;28;20197;-59
2022/10/31 08:25:47;;;;;;;10.43;2.78;;;;;;;20.40;52.31;98717.00;5032764;28;20647;-59
2022/10/31 08:28:13;;;;;;;5.00;2.33;;;;;;;20.44;52.08;98707.78;5032715;28;20174;-59
2022/10/31 08:30:39;;;;;;;12.27;3.30;;;;;;;20.61;52.17;98714.75;5032949;28;20182;-59
2022/10/31 08:33:11;;;;;;;8.63;4.05;;;;;;;20.64;51.70;98709.97;5032716;28;20553;-59
2022/10/31 08:35:37;;;;;;;4.43;2.15;;;;;;;20.80;51.67;98715.28;5033192;28;20193;-59
2022/10/31 08:38:03;;;;;;;4.90;2.65;;;;;;;20.92;50.48;98713.22;5032599;28;20541;-59
2022/10/31 08:40:32;;;;;;;4.72;2.83;;;;;;;20.98;51.33;98723.09;5032625;28;20174;-59
2022/10/31 08:43:04;;;;;;;5.57;2.95;;;;;;;21.05;50.37;98724.06;5032429;28;20213;-59
2022/10/31 08:45:31;;;;;;;6.63;2.20;;;;;;;21.16;50.61;98723.75;5032512;28;20194;-59
2022/10/31 08:47:58;;;;;;;9.30;3.00;;;;;;;21.28;49.89;98725.09;5032317;28;20182;-59
2022/10/31 08:50:24;;;;;;;3.42;2.83;;;;;;;21.33;49.51;98718.31;5032535;28;20609;-58
2022/10/31 08:52:50;;;;;;;14.23;3.60;;;;;;;21.52;49.00;98728.53;5032468;28;20563;-58
2022/10/31 08:55:15;;;;;;;4.90;2.50;;;;;;;21.68;48.44;98727.72;5032246;28;20170;-58
2022/10/31 08:57:41;;;;;;;7.78;2.33;;;;;;;21.79;48.20;98725.56;5032472;28;20169;-58
2022/10/31 09:00:07;;;;;;;8.70;2.35;;;;;;;21.97;48.02;98736.72;5032144;28;20181;-58
2022/10/31 09:02:32;;;;;;;4.90;2.55;;;;;;;22.06;47.22;98735.72;5032331;28;20177;-58
2022/10/31 09:04:57;;;;;;;4.43;2.15;;;;;;;22.15;46.75;98741.78;5032374;28;20170;-58
2022/10/31 09:07:23;;;;;;;6.80;2.50;;;;;;;22.17;46.42;98735.34;5032132;28;20655;-58
2022/10/31 09:09:48;;;;;;;3.65;2.25;;;;;;;22.16;46.31;98744.25;5032123;28;20174;-58
2022/10/31 09:12:14;;;;;;;4.53;2.67;;;;;;;22.12;45.93;98752.66;5031769;28;20166;-58
2022/10/31 09:14:39;;;;;;;2.85;2.47;;;;;;;22.08;46.01;98743.47;5032046;28;20225;-58
2022/10/31 09:17:04;;;;;;;6.70;2.65;;;;;;;22.05;46.02;98746.41;5032027;28;20236;-59
2022/10/31 09:19:30;;;;;;;9.35;2.58;;;;;;;21.99;46.26;98740.03;5032525;28;20173;-59
2022/10/31 09:21:55;;;;;;;6.93;2.50;;;;;;;21.91;46.53;98734.75;5032241;28;20177;-59
2022/10/31 09:24:21;;;;;;;5.25;2.55;;;;;;;21.88;46.69;98739.53;5031908;28;20565;-59
2022/10/31 09:26:46;;;;;;;4.75;2.50;;;;;;;21.83;47.09;98741.84;5031942;28;20196;-59
2022/10/31 09:29:11;;;;;;;5.90;2.65;;;;;;;21.76;47.49;98741.72;5031948;28;20556;-59
2022/10/31 09:31:37;;;;;;;7.45;2.47;;;;;;;21.78;46.97;98741.53;5031859;28;20169;-59
2022/10/31 09:34:03;;;;;;;5.35;2.70;;;;;;;21.84;46.88;98738.22;5032117;28;20244;-59
2022/10/31 09:36:28;;;;;;;6.07;2.17;;;;;;;21.86;46.98;98731.78;5031830;28;20166;-59
2022/10/31 09:38:53;;;;;;;6.65;2.70;;;;;;;21.93;47.02;98738.06;5031825;28;20177;-59
2022/10/31 09:41:48;;;;;;;4.05;2.50;;;;;;;22.00;46.83;98736.38;5031850;28;20209;-59
2022/10/31 09:44:59;;;;;;;7.38;2.40;;;;;;;22.12;46.23;98731.56;5031576;28;20210;-59
2022/10/31 09:47:58;;;;;;;3.20;2.17;;;;;;;22.22;46.42;98726.94;5026966;28;20228;-59
2022/10/31 09:50:47;;;;;;;5.80;2.40;;;;;;;22.32;45.41;98735.47;5031874;28;20564;-59
2022/10/31 09:53:39;;;;;;;6.13;2.38;;;;;;;22.43;45.18;98729.81;5031971;28;20176;-58
2022/10/31 09:56:09;;;;;;;5.55;2.13;;;;;;;22.53;44.81;98726.00;5031909;28;20177;-59
2022/10/31 09:58:42;;;;;;;8.00;1.90;;;;;;;22.59;44.44;98727.13;5031647;28;20173;-59
2022/10/31 10:01:39;;;;;;;5.43;2.13;;;;;;;22.65;44.19;98718.50;5031885;28;20224;-58
2022/10/31 10:04:32;;;;;;;4.50;1.98;;;;;;;22.71;43.88;98723.09;5020854;28;20287;-59
2022/10/31 10:06:58;;;;;;;9.00;2.67;;;;;;;22.75;43.62;98709.41;5031753;28;20635;-59
2022/10/31 10:09:27;;;;;;;5.93;2.47;;;;;;;22.87;43.44;98717.72;5031589;28;20174;-59
2022/10/31 10:11:58;;;;;;;7.55;2.28;;;;;;;22.92;43.87;98707.47;5031496;28;20182;-59
2022/10/31 10:14:29;;;;;;;7.32;2.28;;;;;;;23.09;42.21;98711.66;5031726;28;20263;-59
2022/10/31 10:16:54;;;;;;;9.68;2.15;;;;;;;23.18;42.14;98718.53;5031462;28;20197;-59
2022/10/31 10:19:26;;;;;;;6.63;2.38;;;;;;;23.21;42.48;98712.91;5031856;28;20232;-59
2022/10/31 10:22:03;;;;;;;4.00;2.25;;;;;;;23.26;42.12;98714.00;5031689;28;20176;-59
2022/10/31 10:25:01;;;;;;;4.32;2.20;;;;;;;23.38;41.94;98706.50;5033030;28;20288;-60
2022/10/31 10:28:00;;;;;;;4.65;2.40;;;;;;;23.48;42.09;98707.88;4995042;28;20189;-58
2022/10/31 10:30:33;;;;;;;7.10;2.35;;;;;;;23.56;41.77;98704.34;5052193;28;20226;-58
2022/10/31 10:33:04;;;;;;;12.63;2.55;;;;;;;23.63;41.29;98706.91;5024613;28;20166;-58
2022/10/31 10:35:34;;;;;;;14.10;2.88;;;;;;;23.67;41.64;98702.91;5034647;28;20181;-58
2022/10/31 10:38:34;;;;;;;6.28;2.30;;;;;;;23.63;41.68;98694.72;5041871;28;20189;-58
2022/10/31 10:41:02;;;;;;;6.60;1.90;;;;;;;23.69;41.60;98700.91;5054855;28;20172;-58
2022/10/31 10:43:34;;;;;;;4.50;1.60;;;;;;;23.83;40.56;98694.84;5038202;28;20301;-58
2022/10/31 10:48:59;;;;;;;5.40;2.03;;;;;;;24.10;40.08;98693.41;5048199;28;20200;-58
2022/10/31 10:51:40;;;;;;;6.88;2.13;;;;;;;24.21;40.35;98703.53;5053785;28;20197;-58
2022/10/31 10:54:30;;;;;;;6.80;1.67;;;;;;;24.32;39.20;98698.56;5054203;28;20586;-58
2022/10/31 10:57:14;;;;;;;6.75;2.00;;;;;;;24.43;39.39;98706.03;5054258;28;20161;-58
2022/10/31 10:59:39;;;;;;;6.38;1.80;;;;;;;24.49;38.75;98694.72;5054103;28;20246;-58
2022/10/31 11:02:21;;;;;;;3.00;1.70;;;;;;;24.58;38.65;98698.94;5053684;28;20239;-58
2022/10/31 11:04:51;;;;;;;5.10;2.28;;;;;;;24.65;38.77;98699.84;5052399;28;20189;-58
2022/10/31 11:07:16;;;;;;;5.28;1.98;;;;;;;24.69;39.28;98698.47;5053352;28;20181;-60
2022/10/31 11:09:42;;;;;;;3.63;1.95;;;;;;;24.78;38.60;98694.69;5052823;28;20673;-60
2022/10/31 11:12:33;;;;;;;4.72;1.48;;;;;;;24.80;38.49;98687.38;5052025;28;20188;-58
2022/10/31 11:15:05;;;;;;;8.57;2.15;;;;;;;24.85;39.02;98684.97;5042703;28;20920;-59
2022/10/31 11:17:34;;;;;;;4.65;1.73;;;;;;;24.85;38.65;98678.88;5054385;28;20157;-59
2022/10/31 11:20:00;;;;;;;7.63;2.13;;;;;;;24.94;38.38;98683.84;5054018;28;20173;-60
2022/10/31 11:22:26;;;;;;;4.95;1.58;;;;;;;25.00;38.00;98683.09;5054123;28;20581;-59
2022/10/31 11:24:52;;;;;;;4.05;1.80;;;;;;;25.04;38.08;98686.19;5054144;28;20188;-59
2022/10/31 11:27:22;;;;;;;3.83;1.65;;;;;;;25.06;37.46;98686.81;5054117;28;20259;-59
2022/10/31 11:29:49;;;;;;;4.25;1.70;;;;;;;25.06;37.70;98674.41;5053153;28;20177;-59
2022/10/31 11:32:23;;;;;;;5.25;1.52;;;;;;;25.10;37.81;98682.78;5052648;28;20173;-58
2022/10/31 11:35:01;;;;;;;1.88;1.55;;;;;;;25.11;37.70;98679.94;5037959;28;20204;-59
2022/10/31 11:37:31;;;;;;;3.05;1.60;;;;;;;25.11;37.78;98666.72;5032770;28;20165;-60
2022/10/31 11:40:00;;;;;;;5.22;1.70;;;;;;;25.19;37.60;98679.81;5033918;28;20727;-60
2022/10/31 11:42:36;;;;;;;4.15;1.50;;;;;;;25.27;36.85;98674.44;5032349;28;20181;-60
2022/10/31 11:45:13;;;;;;;8.20;1.88;;;;;;;25.25;37.04;98673.78;5033551;28;20232;-60
2022/10/31 11:47:42;;;;;;;8.55;2.10;;;;;;;25.16;37.42;98669.59;5033579;28;20174;-59